Time;durP1;ratioP1;P1;durP2;ratioP2;P2;SDS_P1;SDS_P2;PMS_P1;PMS_P2;Temp;Humidity;BMP_temperature;BMP_pressure;BME280_temperature;BME280_humidity;BME280_pressure;Samples;Min_cycle;Max_cycle;Signal;HPM_P1;HPM_P2
2024/04/09 00:00:52;;;;;;;18.60;5.03;;;;;;;21.52;38.83;97665.81;5694172;25;20050;-63
2024/04/09 00:03:19;;;;;;;32.17;5.50;;;;;;;21.42;38.58;97666.94;5692615;25;20030;-63
2024/04/09 00:05:46;;;;;;;23.92;5.07;;;;;;;21.45;39.09;97671.59;5695391;25;20468;-64
2024/04/09 00:08:12;;;;;;;20.08;5.32;;;;;;;21.41;39.13;97665.38;5692107;25;20549;-62
2024/04/09 00:10:40;;;;;;;25.38;5.47;;;;;;;21.29;39.40;97666.13;5694326;25;20061;-63
2024/04/09 00:13:06;;;;;;;23.98;4.70;;;;;;;21.23;39.58;97667.84;5694922;25;20029;-62
2024/04/09 00:15:36;;;;;;;21.20;5.32;;;;;;;21.17;39.85;97657.28;5692712;25;20041;-63
2024/04/09 00:18:11;;;;;;;25.70;5.82;;;;;;;21.14;39.76;97644.31;5694343;25;20370;-64
2024/04/09 00:20:39;;;;;;;20.98;5.30;;;;;;;21.13;40.22;97644.75;5694890;25;20039;-63
2024/04/09 00:23:06;;;;;;;25.85;5.22;;;;;;;21.20;40.23;97647.34;5694343;25;20034;-64
2024/04/09 00:25:32;;;;;;;19.42;5.40;;;;;;;21.29;40.11;97639.16;5694127;25;20045;-64
2024/04/09 00:27:59;;;;;;;19.30;5.10;;;;;;;21.33;40.33;97642.59;5693535;25;20112;-63
2024/04/09 00:30:27;;;;;;;21.02;5.97;;;;;;;21.34;39.89;97632.28;5694449;25;20123;-62
2024/04/09 00:32:54;;;;;;;25.88;5.60;;;;;;;21.33;40.15;97639.06;5693933;25;20150;-63
2024/04/09 00:35:21;;;;;;;22.55;5.05;;;;;;;21.31;39.91;97627.63;5693589;25;20065;-63
2024/04/09 00:37:52;;;;;;;19.48;5.05;;;;;;;21.32;40.01;97634.72;5693736;25;20064;-63
2024/04/09 00:40:20;;;;;;;33.28;5.30;;;;;;;21.40;40.28;97631.31;5691726;25;20167;-63
2024/04/09 00:42:49;;;;;;;23.67;6.03;;;;;;;21.38;40.29;97633.75;5694005;25;20052;-63
2024/04/09 00:45:18;;;;;;;17.88;5.15;;;;;;;21.37;40.71;97632.16;5691847;25;20068;-64
2024/04/09 00:47:48;;;;;;;31.88;6.25;;;;;;;21.27;41.37;97638.06;5694027;25;20030;-63
2024/04/09 00:50:17;;;;;;;28.50;5.28;;;;;;;21.23;41.22;97637.34;5693832;25;20145;-62
2024/04/09 00:52:45;;;;;;;22.23;5.75;;;;;;;21.21;41.47;97631.47;5690932;25;20045;-64
2024/04/09 00:55:14;;;;;;;21.00;5.05;;;;;;;21.21;41.57;97634.25;5691256;25;20127;-64
2024/04/09 00:57:47;;;;;;;18.67;4.53;;;;;;;21.26;41.61;97631.72;5693267;25;20026;-62
2024/04/09 01:00:15;;;;;;;24.30;5.47;;;;;;;21.26;41.32;97630.97;5693470;25;20044;-61
2024/04/09 01:02:42;;;;;;;18.92;5.47;;;;;;;21.34;41.17;97632.28;5691637;25;20126;-64
2024/04/09 01:05:10;;;;;;;19.60;5.13;;;;;;;21.33;41.10;97625.19;5693353;25;20141;-64
2024/04/09 01:07:38;;;;;;;23.48;5.07;;;;;;;21.36;40.83;97619.53;5693164;25;20113;-63
2024/04/09 01:10:05;;;;;;;25.02;6.18;;;;;;;21.38;38.96;97625.44;5693284;25;20057;-63
2024/04/09 01:12:31;;;;;;;35.47;6.18;;;;;;;21.48;37.93;97625.53;5693357;25;20530;-64
2024/04/09 01:14:58;;;;;;;21.27;5.47;;;;;;;21.57;37.23;97614.53;5692859;25;20038;-62
2024/04/09 01:17:25;;;;;;;27.98;5.53;;;;;;;21.67;36.01;97616.22;5693604;25;20033;-64
2024/04/09 01:19:51;;;;;;;27.67;5.53;;;;;;;21.76;35.11;97608.78;5690584;25;20147;-64
2024/04/09 01:22:18;;;;;;;28.70;6.03;;;;;;;21.86;34.34;97615.22;5692880;25;20117;-64
2024/04/09 01:24:44;;;;;;;24.90;5.18;;;;;;;21.95;33.76;97622.88;5691375;25;20030;-63
2024/04/09 01:27:17;;;;;;;26.02;5.43;;;;;;;22.02;32.92;97625.41;5693368;25;20037;-64
2024/04/09 01:29:43;;;;;;;38.30;6.70;;;;;;;22.09;32.40;97621.63;5693594;25;20037;-63
2024/04/09 01:32:10;;;;;;;28.23;5.43;;;;;;;22.18;32.01;97628.06;5692893;25;20026;-63
2024/04/09 01:34:37;;;;;;;30.63;5.47;;;;;;;22.27;31.51;97628.16;5692226;25;20507;-63
2024/04/09 01:37:04;;;;;;;32.25;6.22;;;;;;;22.37;31.41;97640.16;5692675;25;20516;-63
2024/04/09 01:39:35;;;;;;;30.83;5.75;;;;;;;22.45;30.46;97646.22;5692872;25;20045;-63
2024/04/09 01:42:03;;;;;;;35.05;5.25;;;;;;;22.52;30.26;97649.56;5692466;25;20051;-63
2024/04/09 01:44:29;;;;;;;31.15;6.55;;;;;;;22.56;30.12;97633.53;5657589;25;20045;-63
2024/04/09 01:46:56;;;;;;;29.92;5.60;;;;;;;22.59;29.95;97634.63;5690562;25;20511;-62
2024/04/09 01:49:25;;;;;;;30.20;5.63;;;;;;;22.63;30.23;97636.03;5688865;25;20038;-62
2024/04/09 01:51:52;;;;;;;27.83;5.30;;;;;;;22.65;29.95;97641.16;5690451;25;20530;-62
2024/04/09 01:54:18;;;;;;;30.80;5.72;;;;;;;22.67;30.00;97635.91;5692896;25;20496;-61
2024/04/09 01:56:45;;;;;;;23.83;5.45;;;;;;;22.65;30.16;97646.72;5690257;25;20041;-62
2024/04/09 01:59:11;;;;;;;25.58;5.22;;;;;;;22.63;30.00;97641.59;5692011;25;20143;-63
2024/04/09 02:01:41;;;;;;;23.33;5.13;;;;;;;22.62;29.94;97658.72;5690698;25;20104;-61
2024/04/09 02:04:07;;;;;;;30.25;5.47;;;;;;;22.60;30.35;97669.53;5690086;25;20463;-62
2024/04/09 02:06:35;;;;;;;29.33;5.60;;;;;;;22.59;29.80;97681.88;5657840;25;20046;-62
2024/04/09 02:09:02;;;;;;;27.35;5.00;;;;;;;22.54;30.22;97683.22;5691448;25;20038;-62
2024/04/09 02:11:28;;;;;;;29.83;5.45;;;;;;;22.53;29.79;97690.00;5692053;25;20081;-63
2024/04/09 02:13:55;;;;;;;27.88;5.38;;;;;;;22.50;30.37;97702.03;5692234;25;20088;-62
2024/04/09 02:16:22;;;;;;;27.23;5.28;;;;;;;22.48;30.05;97712.78;5691919;25;20034;-63
2024/04/09 02:18:49;;;;;;;25.30;6.22;;;;;;;22.46;30.48;97717.22;5691184;25;20038;-63
2024/04/09 02:21:15;;;;;;;30.30;5.50;;;;;;;22.42;30.64;97719.34;5698831;25;20116;-62
2024/04/09 02:23:45;;;;;;;27.83;4.63;;;;;;;22.37;30.72;97737.38;5693207;25;20048;-62
2024/04/09 02:26:12;;;;;;;24.05;5.38;;;;;;;22.34;30.95;97741.81;5697726;25;20067;-62
2024/04/09 02:28:38;;;;;;;30.17;4.47;;;;;;;22.32;30.76;97741.50;5695418;25;20026;-63
2024/04/09 02:31:04;;;;;;;22.90;4.18;;;;;;;22.25;31.25;97752.81;5697979;25;20547;-63
2024/04/09 02:33:31;;;;;;;18.48;3.70;;;;;;;22.22;31.32;97752.94;5697459;25;20120;-61
2024/04/09 02:36:02;;;;;;;19.58;3.35;;;;;;;22.09;31.79;97752.94;5696881;25;20034;-61
2024/04/09 02:38:31;;;;;;;11.80;3.33;;;;;;;22.00;32.74;97766.69;5694449;25;20380;-61
2024/04/09 02:40:57;;;;;;;12.32;2.95;;;;;;;21.93;32.79;97756.53;5696297;25;20120;-61
2024/04/09 02:43:23;;;;;;;14.30;2.78;;;;;;;21.83;33.42;97771.53;5696592;25;20034;-61
2024/04/09 02:45:50;;;;;;;14.85;2.67;;;;;;;21.73;33.24;97776.16;5696247;25;20041;-61
2024/04/09 02:48:16;;;;;;;15.50;2.70;;;;;;;21.66;34.08;97779.16;5694927;25;20531;-61
2024/04/09 02:50:50;;;;;;;12.55;2.63;;;;;;;21.56;33.86;97783.00;5695852;25;20049;-62
2024/04/09 02:53:17;;;;;;;16.27;2.70;;;;;;;21.49;34.29;97805.41;5661090;25;20030;-61
2024/04/09 02:55:44;;;;;;;16.10;2.97;;;;;;;21.46;34.81;97814.63;5695952;25;20033;-61
2024/04/09 02:58:12;;;;;;;9.98;2.65;;;;;;;21.38;35.41;97821.56;5695496;25;20155;-61
2024/04/09 03:00:38;;;;;;;10.27;2.30;;;;;;;21.23;35.99;97829.47;5695241;25;20117;-62
2024/04/09 03:03:05;;;;;;;11.50;2.42;;;;;;;21.12;36.64;97846.38;5695224;25;20045;-62
2024/04/09 03:05:32;;;;;;;9.25;2.30;;;;;;;20.96;36.88;97851.94;5695378;25;20110;-61
2024/04/09 03:07:59;;;;;;;6.63;2.00;;;;;;;20.73;37.22;97836.25;5694951;25;20571;-62
2024/04/09 03:10:26;;;;;;;6.70;1.70;;;;;;;20.63;38.12;97853.91;5694918;25;20049;-61
2024/04/09 03:12:53;;;;;;;8.02;2.13;;;;;;;20.57;38.76;97850.09;5695684;25;20117;-61
2024/04/09 03:15:19;;;;;;;8.93;2.05;;;;;;;20.51;38.67;97843.53;5695710;25;20048;-62
2024/04/09 03:17:46;;;;;;;3.70;1.40;;;;;;;20.41;39.11;97856.38;5692753;25;20026;-62
2024/04/09 03:20:12;;;;;;;7.55;1.42;;;;;;;20.29;39.79;97853.50;5693098;25;20102;-63
2024/04/09 03:22:39;;;;;;;6.00;1.17;;;;;;;20.15;40.00;97849.81;5693131;25;20035;-62
2024/04/09 03:25:06;;;;;;;6.93;1.50;;;;;;;20.03;40.15;97839.41;5695253;25;20030;-62
2024/04/09 03:27:34;;;;;;;4.85;1.83;;;;;;;19.99;40.83;97846.22;5692935;25;20398;-61
2024/04/09 03:30:02;;;;;;;10.38;1.55;;;;;;;19.87;41.36;97840.13;5695697;25;20501;-61
2024/04/09 03:32:29;;;;;;;5.25;1.20;;;;;;;19.78;41.51;97831.63;5693346;25;20080;-63
2024/04/09 03:34:55;;;;;;;4.68;1.55;;;;;;;19.73;42.19;97834.13;5692776;25;20026;-63
2024/04/09 03:37:22;;;;;;;3.30;1.40;;;;;;;19.69;42.68;97834.16;5694343;25;20036;-63
2024/04/09 03:39:48;;;;;;;2.60;1.20;;;;;;;19.63;42.84;97833.88;5692856;25;20034;-63
2024/04/09 03:42:16;;;;;;;6.65;1.50;;;;;;;19.61;43.14;97824.47;5695109;25;20103;-62
2024/04/09 03:44:43;;;;;;;10.65;2.13;;;;;;;19.56;43.24;97847.09;5695416;25;20092;-62
2024/04/09 03:47:09;;;;;;;4.45;1.50;;;;;;;19.57;43.03;97859.72;5694898;25;20097;-61
2024/04/09 03:49:36;;;;;;;2.50;1.05;;;;;;;19.48;43.96;97870.50;5692467;25;20052;-62
2024/04/09 03:52:03;;;;;;;4.57;1.33;;;;;;;19.36;44.11;97861.66;5692850;25;20030;-63
2024/04/09 03:54:31;;;;;;;4.13;1.42;;;;;;;19.30;44.08;97873.59;5694916;25;20057;-61
2024/04/09 03:57:03;;;;;;;4.88;1.30;;;;;;;19.24;44.33;97876.06;5692430;25;20501;-62
2024/04/09 03:59:33;;;;;;;8.13;1.75;;;;;;;19.20;44.71;97880.88;5694711;25;20033;-63
2024/04/09 04:02:00;;;;;;;6.70;1.75;;;;;;;19.16;45.00;97887.69;5695000;25;20059;-63
2024/04/09 04:04:27;;;;;;;5.70;1.60;;;;;;;19.10;45.38;97898.41;5694825;25;20143;-62
2024/04/09 04:06:53;;;;;;;3.92;1.20;;;;;;;19.01;45.82;97887.13;5695305;25;20034;-62
2024/04/09 04:09:23;;;;;;;6.32;1.15;;;;;;;18.92;46.23;97895.94;5692662;25;20499;-62
2024/04/09 04:11:50;;;;;;;6.90;1.42;;;;;;;18.84;46.37;97913.84;5694593;25;20034;-62
2024/04/09 04:14:17;;;;;;;4.35;1.40;;;;;;;18.77;47.03;97906.44;5694361;25;20030;-61
2024/04/09 04:16:43;;;;;;;3.35;1.58;;;;;;;18.71;46.71;97919.16;5692213;25;20420;-61
2024/04/09 04:19:10;;;;;;;2.90;1.20;;;;;;;18.68;47.11;97911.72;5692776;25;20593;-63
2024/04/09 04:21:37;;;;;;;10.35;1.27;;;;;;;18.65;47.69;97922.81;5692626;25;20069;-63
2024/04/09 04:24:03;;;;;;;4.85;1.50;;;;;;;18.62;48.09;97918.88;5692033;25;20524;-62
2024/04/09 04:26:30;;;;;;;4.20;1.52;;;;;;;18.56;48.38;97906.72;5694673;25;20113;-62
2024/04/09 04:28:59;;;;;;;4.65;1.25;;;;;;;18.48;48.59;97921.81;5693314;25;20026;-63
2024/04/09 04:31:25;;;;;;;5.43;1.40;;;;;;;18.43;49.07;97917.56;5693597;25;20527;-62
2024/04/09 04:33:52;;;;;;;4.18;1.80;;;;;;;18.44;49.65;97930.16;5693730;25;20129;-62
2024/04/09 04:36:20;;;;;;;6.38;1.88;;;;;;;18.44;49.39;97941.22;5693923;25;20037;-62
2024/04/09 04:38:48;;;;;;;9.07;2.17;;;;;;;18.43;49.87;97955.44;5690350;25;20037;-63
2024/04/09 04:41:15;;;;;;;3.58;2.10;;;;;;;18.42;50.34;97962.16;5692149;25;20053;-62
2024/04/09 04:43:42;;;;;;;5.90;2.60;;;;;;;18.39;50.83;97960.97;5693869;25;20112;-62
2024/04/09 04:46:09;;;;;;;7.05;3.30;;;;;;;18.32;51.53;97977.63;5693671;25;20547;-62
2024/04/09 04:48:37;;;;;;;9.15;3.47;;;;;;;18.18;52.25;97991.59;5692727;25;20036;-63
2024/04/09 04:51:04;;;;;;;10.50;4.18;;;;;;;18.09;52.85;97985.81;5691713;25;20473;-61
2024/04/09 04:53:31;;;;;;;8.00;3.30;;;;;;;17.98;53.51;97996.16;5691673;25;20050;-61
2024/04/09 04:55:58;;;;;;;7.38;2.78;;;;;;;17.89;54.14;97990.34;5693833;25;20041;-62
2024/04/09 04:58:24;;;;;;;4.60;3.13;;;;;;;17.81;53.87;97998.69;5693057;25;20072;-61
2024/04/09 05:00:52;;;;;;;4.10;2.92;;;;;;;17.81;54.18;97997.91;5693889;25;20523;-61
2024/04/09 05:03:19;;;;;;;5.35;2.78;;;;;;;17.79;54.68;97997.53;5693522;25;20042;-61
2024/04/09 05:05:47;;;;;;;5.00;2.80;;;;;;;17.78;54.48;98007.78;5694304;25;20049;-62
2024/04/09 05:08:14;;;;;;;5.18;3.30;;;;;;;17.77;54.60;98022.75;5692547;25;20141;-63
2024/04/09 05:10:40;;;;;;;8.27;3.95;;;;;;;17.76;54.61;98034.19;5690663;25;20037;-63
2024/04/09 05:13:07;;;;;;;7.15;3.70;;;;;;;17.69;54.85;98043.34;5693727;25;20025;-63
2024/04/09 05:15:33;;;;;;;5.65;3.72;;;;;;;17.71;54.46;98051.97;5693791;25;20030;-63
2024/04/09 05:18:01;;;;;;;4.65;3.55;;;;;;;17.72;54.27;98052.75;5690751;25;20104;-61
2024/04/09 05:20:29;;;;;;;5.93;3.75;;;;;;;17.74;54.30;98064.94;5693281;25;20127;-63
2024/04/09 05:22:56;;;;;;;3.97;3.03;;;;;;;17.70;53.51;98058.69;5691632;25;20476;-62
2024/04/09 05:25:26;;;;;;;5.38;3.20;;;;;;;17.58;53.27;98063.88;5693303;25;20057;-62
2024/04/09 05:27:53;;;;;;;5.57;2.78;;;;;;;17.44;53.38;98068.28;5658480;25;20523;-62
2024/04/09 05:30:20;;;;;;;2.42;2.20;;;;;;;17.40;52.86;98061.25;5692742;25;20101;-63
2024/04/09 05:32:46;;;;;;;3.22;2.00;;;;;;;17.30;53.80;98062.13;5693322;25;20113;-63
2024/04/09 05:35:14;;;;;;;3.85;2.03;;;;;;;17.23;53.29;98077.50;5674481;25;20121;-63
2024/04/09 05:37:42;;;;;;;2.60;1.88;;;;;;;17.18;53.32;98077.13;5690739;25;20049;-63
2024/04/09 05:40:11;;;;;;;4.97;1.90;;;;;;;17.17;53.33;98092.09;5658776;25;20107;-62
2024/04/09 05:42:42;;;;;;;3.58;1.73;;;;;;;17.07;53.35;98092.94;5690550;25;20066;-61
2024/04/09 05:45:10;;;;;;;3.35;1.73;;;;;;;16.99;53.39;98086.69;5690255;25;20072;-62
2024/04/09 05:47:36;;;;;;;2.83;1.60;;;;;;;16.99;53.71;98088.66;5693178;25;20456;-62
2024/04/09 05:50:03;;;;;;;5.03;2.00;;;;;;;16.97;53.58;98093.78;5693587;25;20045;-64
2024/04/09 05:52:31;;;;;;;3.28;1.80;;;;;;;16.79;53.92;98108.41;5694857;25;20029;-63
2024/04/09 05:54:58;;;;;;;4.47;2.30;;;;;;;16.73;54.15;98125.72;5693365;25;20109;-62
2024/04/09 05:57:25;;;;;;;2.40;2.20;;;;;;;16.67;54.36;98124.59;5694563;25;20400;-63
2024/04/09 05:59:53;;;;;;;3.50;2.58;;;;;;;16.54;54.89;98140.69;5694761;25;20151;-63
2024/04/09 06:02:20;;;;;;;4.30;2.67;;;;;;;16.50;55.53;98132.47;5694818;25;20120;-62
2024/04/09 06:04:47;;;;;;;3.85;3.55;;;;;;;16.46;55.42;98128.16;5697692;25;20034;-63
2024/04/09 06:07:14;;;;;;;3.65;3.35;;;;;;;16.40;55.92;98146.25;5694527;25;20057;-63
2024/04/09 06:09:41;;;;;;;5.18;3.38;;;;;;;16.29;55.94;98116.00;5694596;25;20500;-62
2024/04/09 06:12:08;;;;;;;3.38;3.10;;;;;;;16.26;56.23;98112.06;5697799;25;20406;-62
2024/04/09 06:14:34;;;;;;;3.00;2.75;;;;;;;16.22;56.18;98102.25;5696029;25;20441;-62
2024/04/09 06:17:01;;;;;;;3.17;2.75;;;;;;;16.20;56.33;98110.13;5695005;25;20113;-61
2024/04/09 06:19:27;;;;;;;2.47;2.10;;;;;;;16.10;56.77;98110.91;5697033;25;20399;-62
2024/04/09 06:21:54;;;;;;;0.90;0.90;;;;;;;15.83;58.48;98124.31;5697203;25;20070;-61
2024/04/09 06:24:21;;;;;;;1.55;0.70;;;;;;;15.39;58.01;98150.13;5693837;25;20099;-62
2024/04/09 06:26:47;;;;;;;2.28;0.73;;;;;;;15.09;58.92;98170.44;5694547;25;20037;-62
2024/04/09 06:29:14;;;;;;;1.48;0.60;;;;;;;14.94;59.08;98193.50;5695164;25;20551;-63
2024/04/09 06:31:41;;;;;;;3.60;0.82;;;;;;;14.90;59.71;98198.22;5695888;25;20053;-62
2024/04/09 06:34:07;;;;;;;1.15;0.70;;;;;;;14.95;60.31;98210.78;5693839;25;20147;-62
2024/04/09 06:36:34;;;;;;;0.90;0.90;;;;;;;14.95;59.62;98233.53;5696129;25;20615;-61
2024/04/09 06:39:01;;;;;;;0.70;0.70;;;;;;;14.91;59.14;98238.22;5692331;25;20523;-62
2024/04/09 06:41:27;;;;;;;2.67;0.90;;;;;;;14.87;59.28;98242.88;5695882;25;20182;-62
2024/04/09 06:43:53;;;;;;;1.40;1.13;;;;;;;14.92;58.82;98259.00;5693724;25;20504;-62
2024/04/09 06:46:20;;;;;;;1.10;1.00;;;;;;;15.00;58.40;98268.84;5696443;25;20125;-63
2024/04/09 06:48:47;;;;;;;1.33;1.20;;;;;;;14.99;58.18;98270.03;5695228;25;20139;-63
2024/04/09 06:51:13;;;;;;;1.52;0.85;;;;;;;14.97;57.52;98275.13;5696019;25;20397;-63
2024/04/09 06:53:40;;;;;;;2.70;1.05;;;;;;;14.84;57.19;98282.88;5696033;25;20461;-63
2024/04/09 06:56:06;;;;;;;3.75;1.30;;;;;;;14.81;56.51;98291.09;5695653;25;20496;-63
2024/04/09 06:58:34;;;;;;;1.58;1.10;;;;;;;14.77;56.24;98296.56;5694838;25;20588;-63
2024/04/09 07:01:00;;;;;;;1.63;0.80;;;;;;;14.79;54.96;98298.91;5693795;25;20053;-63
2024/04/09 07:03:27;;;;;;;1.42;1.00;;;;;;;14.65;54.09;98298.81;5695844;25;20049;-63
2024/04/09 07:05:54;;;;;;;2.08;1.00;;;;;;;14.57;53.58;98303.47;5695084;25;20452;-63
2024/04/09 07:08:20;;;;;;;1.13;0.80;;;;;;;14.53;53.40;98295.22;5692845;25;20022;-62
2024/04/09 07:10:54;;;;;;;1.90;0.90;;;;;;;14.56;53.28;98312.06;5692632;25;20083;-63
2024/04/09 07:13:21;;;;;;;;;;;;;;;14.62;52.84;98327.00;5695781;25;20041;-63
2024/04/09 07:15:50;;;;;;;2.40;0.70;;;;;;;14.61;51.87;98333.66;5694084;25;19999;-65
2024/04/09 07:18:17;;;;;;;2.15;1.00;;;;;;;14.58;51.52;98328.94;5694946;25;20072;-63
2024/04/09 07:20:44;;;;;;;0.82;0.60;;;;;;;14.65;51.37;98350.94;5695019;25;20527;-63
2024/04/09 07:23:10;;;;;;;1.95;1.00;;;;;;;14.66;50.64;98336.06;5693118;25;20072;-63
2024/04/09 07:25:39;;;;;;;3.35;0.95;;;;;;;14.58;50.39;98343.44;5692921;25;20030;-64
2024/04/09 07:28:05;;;;;;;1.30;0.80;;;;;;;14.58;50.06;98337.97;5693001;25;20030;-64
2024/04/09 07:30:35;;;;;;;3.33;0.90;;;;;;;14.62;50.54;98336.03;5694827;25;20548;-64
2024/04/09 07:33:04;;;;;;;6.93;0.70;;;;;;;14.72;50.02;98340.84;5692547;25;20052;-65
2024/04/09 07:35:30;;;;;;;2.22;1.00;;;;;;;14.87;50.70;98352.69;5649484;25;20524;-64
2024/04/09 07:37:57;;;;;;;2.33;0.85;;;;;;;15.02;49.39;98348.88;5653233;25;20500;-65
2024/04/09 07:40:28;;;;;;;1.90;1.25;;;;;;;14.95;48.55;98365.31;3789113;25;10021385;-64
2024/04/09 07:42:55;;;;;;;3.55;1.08;;;;;;;14.95;48.10;98387.28;972740;25;10001222;-64
2024/04/09 07:45:22;;;;;;;3.17;0.70;;;;;;;14.84;48.02;98397.38;5655329;25;20133;-64
2024/04/09 07:47:51;;;;;;;5.68;3.05;;;;;;;14.84;48.38;98411.09;5655412;25;20046;-64
2024/04/09 07:50:19;;;;;;;2.80;0.80;;;;;;;14.80;47.64;98411.09;5653036;25;20136;-63
2024/04/09 07:52:45;;;;;;;1.30;0.63;;;;;;;14.75;47.85;98421.63;5655409;25;20041;-62
2024/04/09 07:55:12;;;;;;;2.38;0.73;;;;;;;14.77;47.20;98430.28;5655614;25;20031;-64
2024/04/09 07:57:39;;;;;;;2.88;0.73;;;;;;;14.69;46.98;98432.16;5656149;25;20034;-64
2024/04/09 08:00:13;;;;;;;2.65;0.70;;;;;;;14.70;47.61;98424.72;5655849;25;20075;-63
2024/04/09 08:02:41;;;;;;;2.45;0.90;;;;;;;14.58;47.19;98444.97;5654040;25;20075;-64
2024/04/09 08:05:10;;;;;;;2.55;0.77;;;;;;;14.51;47.51;98455.91;5693994;25;20049;-65
2024/04/09 08:07:39;;;;;;;4.38;1.20;;;;;;;14.50;47.59;98471.56;5692009;25;20041;-66
2024/04/09 08:10:11;;;;;;;1.20;0.60;;;;;;;14.34;47.95;98468.22;5694767;25;20044;-66
2024/04/09 08:12:49;;;;;;;2.15;0.80;;;;;;;14.13;48.13;98466.00;5660949;25;20465;-65
2024/04/09 08:15:20;;;;;;;3.80;0.95;;;;;;;14.05;48.86;98467.06;5695477;25;20458;-65
2024/04/09 08:17:50;;;;;;;6.25;1.02;;;;;;;14.01;48.23;98479.16;5692591;25;20409;-65
2024/04/09 08:20:19;;;;;;;2.50;0.88;;;;;;;13.90;48.97;98468.84;5659365;25;20040;-65
2024/04/09 08:22:50;;;;;;;3.28;1.20;;;;;;;13.88;48.40;98464.88;5691791;25;20061;-62
2024/04/09 08:25:18;;;;;;;3.95;1.00;;;;;;;13.92;47.67;98480.22;5694471;25;20048;-64
2024/04/09 08:27:45;;;;;;;2.58;0.80;;;;;;;13.88;47.96;98484.84;5691520;25;20408;-64
2024/04/09 08:30:14;;;;;;;3.33;0.98;;;;;;;13.86;48.74;98505.59;5692712;25;20075;-65
2024/04/09 08:32:41;;;;;;;2.60;0.85;;;;;;;13.84;48.89;98516.91;5694239;25;20049;-65
2024/04/09 08:35:08;;;;;;;3.13;0.82;;;;;;;14.00;49.26;98515.97;5674189;25;20042;-65
2024/04/09 08:37:35;;;;;;;3.17;0.80;;;;;;;14.10;48.50;98527.06;5692017;25;20056;-65
2024/04/09 08:40:01;;;;;;;5.78;0.80;;;;;;;14.18;48.53;98530.69;5693778;25;20124;-65
2024/04/09 08:42:28;;;;;;;3.25;1.10;;;;;;;14.12;48.79;98523.94;5694553;25;20045;-65
2024/04/09 08:44:55;;;;;;;2.22;0.77;;;;;;;14.10;48.29;98543.50;5694131;25;20163;-65
2024/04/09 08:47:25;;;;;;;2.17;0.80;;;;;;;13.97;46.79;98557.84;5693791;25;20080;-66
2024/04/09 08:49:55;;;;;;;3.20;1.02;;;;;;;13.90;47.08;98575.75;5691040;25;20053;-66
2024/04/09 08:52:29;;;;;;;3.22;0.60;;;;;;;13.89;47.26;98570.63;5691483;25;20161;-65
2024/04/09 08:54:56;;;;;;;0.68;0.45;;;;;;;13.91;47.22;98582.00;5691319;25;20049;-65
2024/04/09 08:57:22;;;;;;;1.27;0.63;;;;;;;13.93;46.82;98591.44;5694069;25;20061;-65
2024/04/09 08:59:49;;;;;;;4.20;0.80;;;;;;;13.90;47.51;98597.66;5693489;25;20626;-65
2024/04/09 09:02:16;;;;;;;1.75;0.70;;;;;;;13.88;48.03;98605.47;5693631;25;20045;-65
2024/04/09 09:04:44;;;;;;;2.42;0.80;;;;;;;13.86;48.71;98610.53;5693719;25;20049;-64
2024/04/09 09:07:19;;;;;;;5.43;1.08;;;;;;;13.94;49.53;98612.25;5660796;25;20052;-64
2024/04/09 09:09:47;;;;;;;5.32;0.90;;;;;;;14.03;49.60;98611.97;5694269;25;20548;-66
2024/04/09 09:12:15;;;;;;;2.45;0.90;;;;;;;13.99;49.45;98613.09;5691863;25;20044;-65
2024/04/09 09:14:54;;;;;;;1.85;0.80;;;;;;;13.93;50.03;98604.34;5694011;25;20108;-66
2024/04/09 09:17:22;;;;;;;2.92;1.00;;;;;;;13.99;49.68;98602.91;5691752;25;20111;-66
2024/04/09 09:19:59;;;;;;;2.63;0.93;;;;;;;13.98;49.91;98608.75;5658825;25;20132;-65
2024/04/09 09:22:35;;;;;;;3.22;0.75;;;;;;;13.92;50.84;98600.81;5658500;25;20049;-65
2024/04/09 09:25:05;;;;;;;4.05;0.88;;;;;;;13.92;50.91;98598.09;5691249;25;20200;-65
2024/04/09 09:27:33;;;;;;;1.80;0.90;;;;;;;13.88;51.00;98613.69;5690578;25;20053;-66
2024/04/09 09:30:00;;;;;;;2.28;0.95;;;;;;;13.92;51.31;98624.72;5692874;25;20660;-67
2024/04/09 09:32:26;;;;;;;3.05;1.20;;;;;;;13.83;51.16;98635.94;5694680;25;20123;-67
2024/04/09 09:34:56;;;;;;;3.17;1.30;;;;;;;13.75;51.45;98633.44;5704046;25;20079;-66
2024/04/09 09:37:25;;;;;;;3.10;1.27;;;;;;;13.52;52.97;98636.19;5698162;25;20113;-64
2024/04/09 09:39:52;;;;;;;2.90;1.17;;;;;;;13.43;53.39;98644.66;5698270;25;20046;-65
2024/04/09 09:42:21;;;;;;;2.65;1.17;;;;;;;13.50;53.75;98638.50;5663177;25;20050;-64
2024/04/09 09:44:48;;;;;;;3.75;1.55;;;;;;;13.49;53.38;98636.91;5695839;25;20057;-65
2024/04/09 09:47:16;;;;;;;4.60;1.33;;;;;;;13.45;54.00;98638.81;5698341;25;20070;-65
2024/04/09 09:49:44;;;;;;;4.75;1.20;;;;;;;13.48;53.43;98641.59;5664369;25;20053;-64
2024/04/09 09:52:11;;;;;;;7.80;1.25;;;;;;;13.35;54.70;98645.66;5697430;25;20048;-65
2024/04/09 09:54:38;;;;;;;2.67;0.90;;;;;;;13.27;54.55;98644.75;5662783;25;20533;-65
2024/04/09 09:57:10;;;;;;;6.30;0.95;;;;;;;13.13;55.09;98654.59;5696861;25;20485;-66
2024/04/09 09:59:45;;;;;;;5.57;1.15;;;;;;;13.11;55.58;98660.44;5697729;25;20121;-65
2024/04/09 10:02:14;;;;;;;2.67;0.80;;;;;;;13.10;55.85;98647.91;5694753;25;20437;-64
2024/04/09 10:04:43;;;;;;;5.25;1.48;;;;;;;13.09;55.73;98672.91;5698080;25;20628;-66
2024/04/09 10:07:11;;;;;;;2.45;1.00;;;;;;;13.01;54.74;98678.25;5698195;25;20045;-65
2024/04/09 10:09:43;;;;;;;4.57;1.15;;;;;;;13.02;54.79;98666.16;5694864;25;20033;-64
2024/04/09 10:12:34;;;;;;;3.90;1.75;;;;;;;13.08;55.39;98677.59;5697206;25;20041;-65
2024/04/09 10:15:05;;;;;;;4.50;1.00;;;;;;;13.09;54.69;98678.38;5678356;25;20034;-63
2024/04/09 10:17:52;;;;;;;1.65;0.80;;;;;;;13.18;54.44;98687.19;5696210;25;20424;-65
2024/04/09 10:20:23;;;;;;;2.67;1.13;;;;;;;13.23;55.25;98687.72;5693809;25;20057;-65
2024/04/09 10:22:52;;;;;;;2.38;1.00;;;;;;;13.32;55.71;98699.22;5661696;25;20044;-65
2024/04/09 10:25:21;;;;;;;6.43;1.27;;;;;;;13.28;55.14;98706.59;5693815;25;20133;-65
2024/04/09 10:27:59;;;;;;;3.05;1.00;;;;;;;13.25;55.16;98701.03;5696152;25;20067;-65
2024/04/09 10:30:27;;;;;;;3.70;1.00;;;;;;;13.22;54.51;98705.28;5696496;25;20037;-65
2024/04/09 10:32:55;;;;;;;4.82;0.90;;;;;;;13.23;54.64;98697.88;5660945;25;20143;-65
2024/04/09 10:35:23;;;;;;;3.13;1.10;;;;;;;13.26;54.05;98692.47;5696734;25;20050;-66
2024/04/09 10:37:51;;;;;;;4.00;1.23;;;;;;;13.26;54.32;98697.94;5696241;25;20473;-65
2024/04/09 10:40:19;;;;;;;1.83;0.80;;;;;;;13.21;53.58;98681.81;5695886;25;20174;-67
2024/04/09 10:42:46;;;;;;;1.98;1.00;;;;;;;13.13;53.39;98671.03;5693666;25;20072;-66
2024/04/09 10:45:13;;;;;;;3.70;0.90;;;;;;;13.11;53.42;98684.28;5695772;25;20052;-65
2024/04/09 10:47:40;;;;;;;3.78;0.75;;;;;;;13.10;53.89;98683.50;5659270;25;20034;-66
2024/04/09 10:50:08;;;;;;;1.65;0.55;;;;;;;13.08;54.15;98669.38;5694327;25;20068;-67
2024/04/09 10:52:36;;;;;;;2.58;0.82;;;;;;;13.08;54.06;98687.75;5692984;25;20105;-63
2024/04/09 10:55:15;;;;;;;8.40;1.70;;;;;;;13.12;54.69;98686.66;5693482;25;20158;-64
2024/04/09 10:57:49;;;;;;;3.42;0.98;;;;;;;13.16;54.71;98694.94;5693500;25;20034;-64
2024/04/09 11:00:16;;;;;;;3.08;1.08;;;;;;;13.20;54.71;98688.44;5695667;25;20416;-64
2024/04/09 11:02:43;;;;;;;6.18;1.00;;;;;;;13.27;54.55;98694.03;5695264;25;20037;-65
2024/04/09 11:05:11;;;;;;;4.70;1.20;;;;;;;13.28;54.80;98692.09;5708559;25;20524;-64
2024/04/09 11:07:42;;;;;;;6.78;2.28;;;;;;;13.23;54.71;98698.66;5693263;25;20520;-64
2024/04/09 11:10:11;;;;;;;2.95;1.08;;;;;;;13.30;54.68;98690.56;5693273;25;20511;-64
2024/04/09 11:14:32;;;;;;;2.65;1.40;;;;;;;13.47;54.65;98707.72;5478665;25;20334;-63
2024/04/09 11:16:59;;;;;;;1.73;0.90;;;;;;;13.42;53.87;98713.50;5456340;26;20004;-65
2024/04/09 11:19:27;;;;;;;2.63;1.40;;;;;;;13.44;54.45;98722.94;5469167;26;20421;-63
2024/04/09 11:21:54;;;;;;;3.28;1.15;;;;;;;13.52;54.27;98719.16;5469909;26;20002;-64
2024/04/09 11:24:22;;;;;;;4.55;1.50;;;;;;;13.66;54.11;98715.91;5470080;26;19994;-64
2024/04/09 11:26:49;;;;;;;4.47;1.30;;;;;;;13.65;54.16;98708.84;5470093;26;20010;-64
2024/04/09 11:29:20;;;;;;;3.42;1.13;;;;;;;13.65;53.85;98697.88;5438181;26;19998;-64
2024/04/09 11:31:49;;;;;;;2.85;1.33;;;;;;;13.61;53.56;98703.31;5469684;26;20037;-64
2024/04/09 11:34:23;;;;;;;6.15;1.25;;;;;;;13.52;53.60;98691.75;5476246;26;20014;-64
2024/04/09 11:36:50;;;;;;;6.90;1.73;;;;;;;13.54;54.12;98688.66;5445273;26;19994;-64